<?xml version="1.0" encoding="UTF-8" standalone="no" ?>
<gpx xmlns="http://www.topografix.com/GPX/1/1" xmlns:xsi="http://www.w3.org/2001/XMLSchema-instance" xsi:schemaLocation="http://www.topografix.com/GPX/1/1 http://www.topografix.com/GPX/1/1/gpx.xsd" version="1.1" creator="VisuGPX - https://www.visugpx.com">
  <metadata>
    <name>Vernon à Villers-en-Arthies</name>
  </metadata>
  <trk>
    <name><![CDATA[Etape 2 - Vernon à Villers-en-Arthies-21424667]]></name>
    <trkseg>
      <trkpt lat="49.08582" lon="1.45758">
        <ele>86</ele>
        <time>2025-05-19T15:01:53Z</time>
      </trkpt>
      <trkpt lat="49.08628" lon="1.45717">
        <ele>84</ele>
        <time>2025-05-19T15:02:05Z</time>
      </trkpt>
      <trkpt lat="49.08664" lon="1.4573">
        <ele>80</ele>
        <time>2025-05-19T15:02:14Z</time>
      </trkpt>
      <trkpt lat="49.08686" lon="1.45743">
        <ele>76</ele>
        <time>2025-05-19T15:02:20Z</time>
      </trkpt>
      <trkpt lat="49.08733" lon="1.45767">
        <ele>69</ele>
        <time>2025-05-19T15:02:31Z</time>
      </trkpt>
      <trkpt lat="49.08773" lon="1.45779">
        <ele>63</ele>
        <time>2025-05-19T15:02:41Z</time>
      </trkpt>
      <trkpt lat="49.08787" lon="1.45779">
        <ele>62</ele>
        <time>2025-05-19T15:02:44Z</time>
      </trkpt>
      <trkpt lat="49.08806" lon="1.45769">
        <ele>59</ele>
        <time>2025-05-19T15:02:49Z</time>
      </trkpt>
      <trkpt lat="49.08819" lon="1.45767">
        <ele>58</ele>
        <time>2025-05-19T15:02:52Z</time>
      </trkpt>
      <trkpt lat="49.08836" lon="1.45772">
        <ele>56</ele>
        <time>2025-05-19T15:02:56Z</time>
      </trkpt>
      <trkpt lat="49.08847" lon="1.4578">
        <ele>54</ele>
        <time>2025-05-19T15:02:59Z</time>
      </trkpt>
      <trkpt lat="49.08903" lon="1.45795">
        <ele>49</ele>
        <time>2025-05-19T15:03:12Z</time>
      </trkpt>
      <trkpt lat="49.08933" lon="1.45821">
        <ele>47</ele>
        <time>2025-05-19T15:03:20Z</time>
      </trkpt>
      <trkpt lat="49.08967" lon="1.45843">
        <ele>45</ele>
        <time>2025-05-19T15:03:29Z</time>
      </trkpt>
      <trkpt lat="49.08969" lon="1.45877">
        <ele>44</ele>
        <time>2025-05-19T15:03:34Z</time>
      </trkpt>
      <trkpt lat="49.0898" lon="1.45925">
        <ele>43</ele>
        <time>2025-05-19T15:03:42Z</time>
      </trkpt>
      <trkpt lat="49.0901" lon="1.45984">
        <ele>41</ele>
        <time>2025-05-19T15:03:53Z</time>
      </trkpt>
      <trkpt lat="49.09077" lon="1.46107">
        <ele>36</ele>
        <time>2025-05-19T15:04:17Z</time>
      </trkpt>
      <trkpt lat="49.0903" lon="1.46327">
        <ele>34</ele>
        <time>2025-05-19T15:04:53Z</time>
      </trkpt>
      <trkpt lat="49.08946" lon="1.4649">
        <ele>35</ele>
        <time>2025-05-19T15:05:25Z</time>
      </trkpt>
      <trkpt lat="49.08874" lon="1.46625">
        <ele>37</ele>
        <time>2025-05-19T15:05:51Z</time>
      </trkpt>
      <trkpt lat="49.08857" lon="1.4666">
        <ele>38</ele>
        <time>2025-05-19T15:05:58Z</time>
      </trkpt>
      <trkpt lat="49.08842" lon="1.46686">
        <ele>39</ele>
        <time>2025-05-19T15:06:03Z</time>
      </trkpt>
      <trkpt lat="49.0885" lon="1.46694">
        <ele>39</ele>
        <time>2025-05-19T15:06:05Z</time>
      </trkpt>
      <trkpt lat="49.08867" lon="1.46722">
        <ele>39</ele>
        <time>2025-05-19T15:06:11Z</time>
      </trkpt>
      <trkpt lat="49.0887" lon="1.46736">
        <ele>39</ele>
        <time>2025-05-19T15:06:13Z</time>
      </trkpt>
      <trkpt lat="49.08887" lon="1.46859">
        <ele>38</ele>
        <time>2025-05-19T15:06:33Z</time>
      </trkpt>
      <trkpt lat="49.08936" lon="1.47183">
        <ele>35</ele>
        <time>2025-05-19T15:07:24Z</time>
      </trkpt>
      <trkpt lat="49.08931" lon="1.4719">
        <ele>35</ele>
        <time>2025-05-19T15:07:25Z</time>
      </trkpt>
      <trkpt lat="49.08928" lon="1.47202">
        <ele>34</ele>
        <time>2025-05-19T15:07:27Z</time>
      </trkpt>
      <trkpt lat="49.08932" lon="1.47219">
        <ele>34</ele>
        <time>2025-05-19T15:07:30Z</time>
      </trkpt>
      <trkpt lat="49.08944" lon="1.47231">
        <ele>34</ele>
        <time>2025-05-19T15:07:33Z</time>
      </trkpt>
      <trkpt lat="49.08979" lon="1.47471">
        <ele>35</ele>
        <time>2025-05-19T15:08:11Z</time>
      </trkpt>
      <trkpt lat="49.08963" lon="1.47532">
        <ele>34</ele>
        <time>2025-05-19T15:08:21Z</time>
      </trkpt>
      <trkpt lat="49.08921" lon="1.47606">
        <ele>34</ele>
        <time>2025-05-19T15:08:36Z</time>
      </trkpt>
      <trkpt lat="49.08938" lon="1.47655">
        <ele>33</ele>
        <time>2025-05-19T15:08:44Z</time>
      </trkpt>
      <trkpt lat="49.09039" lon="1.47893">
        <ele>29</ele>
        <time>2025-05-19T15:09:28Z</time>
      </trkpt>
      <trkpt lat="49.09045" lon="1.47901">
        <ele>28</ele>
        <time>2025-05-19T15:09:30Z</time>
      </trkpt>
      <trkpt lat="49.09047" lon="1.47909">
        <ele>28</ele>
        <time>2025-05-19T15:09:31Z</time>
      </trkpt>
      <trkpt lat="49.09058" lon="1.4791">
        <ele>28</ele>
        <time>2025-05-19T15:09:33Z</time>
      </trkpt>
      <trkpt lat="49.09061" lon="1.47903">
        <ele>28</ele>
        <time>2025-05-19T15:09:35Z</time>
      </trkpt>
      <trkpt lat="49.09066" lon="1.47909">
        <ele>28</ele>
        <time>2025-05-19T15:09:36Z</time>
      </trkpt>
      <trkpt lat="49.09084" lon="1.4788">
        <ele>28</ele>
        <time>2025-05-19T15:09:42Z</time>
      </trkpt>
      <trkpt lat="49.09093" lon="1.47893">
        <ele>27</ele>
        <time>2025-05-19T15:09:45Z</time>
      </trkpt>
      <trkpt lat="49.09089" lon="1.47907">
        <ele>27</ele>
        <time>2025-05-19T15:09:48Z</time>
      </trkpt>
      <trkpt lat="49.09077" lon="1.47922">
        <ele>27</ele>
        <time>2025-05-19T15:09:51Z</time>
      </trkpt>
      <trkpt lat="49.09078" lon="1.47929">
        <ele>27</ele>
        <time>2025-05-19T15:09:52Z</time>
      </trkpt>
      <trkpt lat="49.09065" lon="1.47949">
        <ele>27</ele>
        <time>2025-05-19T15:09:57Z</time>
      </trkpt>
      <trkpt lat="49.09064" lon="1.47957">
        <ele>27</ele>
        <time>2025-05-19T15:09:58Z</time>
      </trkpt>
      <trkpt lat="49.09079" lon="1.48003">
        <ele>27</ele>
        <time>2025-05-19T15:10:06Z</time>
      </trkpt>
      <trkpt lat="49.0908" lon="1.48011">
        <ele>27</ele>
        <time>2025-05-19T15:10:07Z</time>
      </trkpt>
      <trkpt lat="49.09101" lon="1.48052">
        <ele>28</ele>
        <time>2025-05-19T15:10:15Z</time>
      </trkpt>
      <trkpt lat="49.09173" lon="1.48177">
        <ele>28</ele>
        <time>2025-05-19T15:10:40Z</time>
      </trkpt>
      <trkpt lat="49.09182" lon="1.48169">
        <ele>28</ele>
        <time>2025-05-19T15:10:43Z</time>
      </trkpt>
      <trkpt lat="49.09198" lon="1.48193">
        <ele>27</ele>
        <time>2025-05-19T15:10:48Z</time>
      </trkpt>
      <trkpt lat="49.09199" lon="1.48194">
        <ele>27</ele>
        <time>2025-05-19T15:10:48Z</time>
      </trkpt>
      <trkpt lat="49.09205" lon="1.48188">
        <ele>27</ele>
        <time>2025-05-19T15:10:50Z</time>
      </trkpt>
      <trkpt lat="49.0922" lon="1.48209">
        <ele>27</ele>
        <time>2025-05-19T15:10:55Z</time>
      </trkpt>
      <trkpt lat="49.09218" lon="1.48233">
        <ele>27</ele>
        <time>2025-05-19T15:10:58Z</time>
      </trkpt>
      <trkpt lat="49.09226" lon="1.48252">
        <ele>26</ele>
        <time>2025-05-19T15:11:02Z</time>
      </trkpt>
      <trkpt lat="49.09279" lon="1.48331">
        <ele>25</ele>
        <time>2025-05-19T15:11:19Z</time>
      </trkpt>
      <trkpt lat="49.09275" lon="1.48339">
        <ele>25</ele>
        <time>2025-05-19T15:11:21Z</time>
      </trkpt>
      <trkpt lat="49.09464" lon="1.48618">
        <ele>20</ele>
        <time>2025-05-19T15:12:22Z</time>
      </trkpt>
      <trkpt lat="49.09466" lon="1.48627">
        <ele>19</ele>
        <time>2025-05-19T15:12:24Z</time>
      </trkpt>
      <trkpt lat="49.09463" lon="1.48638">
        <ele>19</ele>
        <time>2025-05-19T15:12:25Z</time>
      </trkpt>
      <trkpt lat="49.09472" lon="1.48651">
        <ele>18</ele>
        <time>2025-05-19T15:12:28Z</time>
      </trkpt>
      <trkpt lat="49.09483" lon="1.4865">
        <ele>18</ele>
        <time>2025-05-19T15:12:31Z</time>
      </trkpt>
      <trkpt lat="49.09489" lon="1.48657">
        <ele>18</ele>
        <time>2025-05-19T15:12:33Z</time>
      </trkpt>
      <trkpt lat="49.09656" lon="1.48905">
        <ele>14</ele>
        <time>2025-05-19T15:13:27Z</time>
      </trkpt>
      <trkpt lat="49.09671" lon="1.48959">
        <ele>16</ele>
        <time>2025-05-19T15:13:36Z</time>
      </trkpt>
      <trkpt lat="49.0966" lon="1.49044">
        <ele>16</ele>
        <time>2025-05-19T15:13:49Z</time>
      </trkpt>
      <trkpt lat="49.09644" lon="1.49078">
        <ele>16</ele>
        <time>2025-05-19T15:13:56Z</time>
      </trkpt>
      <trkpt lat="49.09622" lon="1.49108">
        <ele>16</ele>
        <time>2025-05-19T15:14:02Z</time>
      </trkpt>
      <trkpt lat="49.09613" lon="1.49114">
        <ele>16</ele>
        <time>2025-05-19T15:14:05Z</time>
      </trkpt>
      <trkpt lat="49.09608" lon="1.49113">
        <ele>16</ele>
        <time>2025-05-19T15:14:06Z</time>
      </trkpt>
      <trkpt lat="49.096" lon="1.49104">
        <ele>16</ele>
        <time>2025-05-19T15:14:08Z</time>
      </trkpt>
      <trkpt lat="49.09562" lon="1.49044">
        <ele>16</ele>
        <time>2025-05-19T15:14:21Z</time>
      </trkpt>
      <trkpt lat="49.09505" lon="1.49127">
        <ele>13</ele>
        <time>2025-05-19T15:14:39Z</time>
      </trkpt>
      <trkpt lat="49.09494" lon="1.4914">
        <ele>13</ele>
        <time>2025-05-19T15:14:43Z</time>
      </trkpt>
      <trkpt lat="49.09408" lon="1.49258">
        <ele>16</ele>
        <time>2025-05-19T15:15:10Z</time>
      </trkpt>
      <trkpt lat="49.09318" lon="1.49398">
        <ele>15</ele>
        <time>2025-05-19T15:15:40Z</time>
      </trkpt>
      <trkpt lat="49.09224" lon="1.49534">
        <ele>12</ele>
        <time>2025-05-19T15:16:10Z</time>
      </trkpt>
      <trkpt lat="49.09216" lon="1.49566">
        <ele>13</ele>
        <time>2025-05-19T15:16:15Z</time>
      </trkpt>
      <trkpt lat="49.09231" lon="1.49522">
        <ele>12</ele>
        <time>2025-05-19T15:16:23Z</time>
      </trkpt>
      <trkpt lat="49.09211" lon="1.49581">
        <ele>13</ele>
        <time>2025-05-19T15:16:33Z</time>
      </trkpt>
      <trkpt lat="49.09195" lon="1.49592">
        <ele>13</ele>
        <time>2025-05-19T15:16:37Z</time>
      </trkpt>
      <trkpt lat="49.09171" lon="1.49619">
        <ele>13</ele>
        <time>2025-05-19T15:16:44Z</time>
      </trkpt>
      <trkpt lat="49.09158" lon="1.49655">
        <ele>14</ele>
        <time>2025-05-19T15:16:50Z</time>
      </trkpt>
      <trkpt lat="49.09164" lon="1.49634">
        <ele>14</ele>
        <time>2025-05-19T15:16:54Z</time>
      </trkpt>
      <trkpt lat="49.09128" lon="1.49696">
        <ele>12</ele>
        <time>2025-05-19T15:17:06Z</time>
      </trkpt>
      <trkpt lat="49.09092" lon="1.49752">
        <ele>12</ele>
        <time>2025-05-19T15:17:18Z</time>
      </trkpt>
      <trkpt lat="49.09051" lon="1.4982">
        <ele>13</ele>
        <time>2025-05-19T15:17:33Z</time>
      </trkpt>
      <trkpt lat="49.09016" lon="1.4986">
        <ele>14</ele>
        <time>2025-05-19T15:17:43Z</time>
      </trkpt>
      <trkpt lat="49.09024" lon="1.49851">
        <ele>14</ele>
        <time>2025-05-19T15:17:45Z</time>
      </trkpt>
      <trkpt lat="49.08958" lon="1.49952">
        <ele>14</ele>
        <time>2025-05-19T15:18:07Z</time>
      </trkpt>
      <trkpt lat="49.08938" lon="1.49977">
        <ele>14</ele>
        <time>2025-05-19T15:18:13Z</time>
      </trkpt>
      <trkpt lat="49.09046" lon="1.49827">
        <ele>13</ele>
        <time>2025-05-19T15:18:47Z</time>
      </trkpt>
      <trkpt lat="49.08905" lon="1.50012">
        <ele>15</ele>
        <time>2025-05-19T15:19:30Z</time>
      </trkpt>
      <trkpt lat="49.08861" lon="1.50052">
        <ele>14</ele>
        <time>2025-05-19T15:19:42Z</time>
      </trkpt>
      <trkpt lat="49.08841" lon="1.50078">
        <ele>16</ele>
        <time>2025-05-19T15:19:49Z</time>
      </trkpt>
      <trkpt lat="49.08776" lon="1.50199">
        <ele>16</ele>
        <time>2025-05-19T15:20:12Z</time>
      </trkpt>
      <trkpt lat="49.08732" lon="1.50312">
        <ele>17</ele>
        <time>2025-05-19T15:20:33Z</time>
      </trkpt>
      <trkpt lat="49.08727" lon="1.50335">
        <ele>17</ele>
        <time>2025-05-19T15:20:36Z</time>
      </trkpt>
      <trkpt lat="49.0873" lon="1.50367">
        <ele>17</ele>
        <time>2025-05-19T15:20:41Z</time>
      </trkpt>
      <trkpt lat="49.08757" lon="1.50499">
        <ele>18</ele>
        <time>2025-05-19T15:21:02Z</time>
      </trkpt>
      <trkpt lat="49.08772" lon="1.50556">
        <ele>15</ele>
        <time>2025-05-19T15:21:12Z</time>
      </trkpt>
      <trkpt lat="49.08775" lon="1.50576">
        <ele>15</ele>
        <time>2025-05-19T15:21:15Z</time>
      </trkpt>
      <trkpt lat="49.0877" lon="1.50662">
        <ele>16</ele>
        <time>2025-05-19T15:21:28Z</time>
      </trkpt>
      <trkpt lat="49.08754" lon="1.50764">
        <ele>15</ele>
        <time>2025-05-19T15:21:44Z</time>
      </trkpt>
      <trkpt lat="49.08732" lon="1.50838">
        <ele>16</ele>
        <time>2025-05-19T15:21:57Z</time>
      </trkpt>
      <trkpt lat="49.08706" lon="1.50903">
        <ele>17</ele>
        <time>2025-05-19T15:22:08Z</time>
      </trkpt>
      <trkpt lat="49.08703" lon="1.50923">
        <ele>17</ele>
        <time>2025-05-19T15:22:11Z</time>
      </trkpt>
      <trkpt lat="49.08705" lon="1.50935">
        <ele>18</ele>
        <time>2025-05-19T15:22:13Z</time>
      </trkpt>
      <trkpt lat="49.08742" lon="1.50973">
        <ele>22</ele>
        <time>2025-05-19T15:22:24Z</time>
      </trkpt>
      <trkpt lat="49.08739" lon="1.50978">
        <ele>22</ele>
        <time>2025-05-19T15:22:25Z</time>
      </trkpt>
      <trkpt lat="49.08716" lon="1.5101">
        <ele>23</ele>
        <time>2025-05-19T15:22:32Z</time>
      </trkpt>
      <trkpt lat="49.08416" lon="1.51387">
        <ele>23</ele>
        <time>2025-05-19T15:24:03Z</time>
      </trkpt>
      <trkpt lat="49.0839" lon="1.51415">
        <ele>22</ele>
        <time>2025-05-19T15:24:10Z</time>
      </trkpt>
      <trkpt lat="49.08366" lon="1.51437">
        <ele>22</ele>
        <time>2025-05-19T15:24:17Z</time>
      </trkpt>
      <trkpt lat="49.08256" lon="1.51521">
        <ele>19</ele>
        <time>2025-05-19T15:24:45Z</time>
      </trkpt>
      <trkpt lat="49.08206" lon="1.51563">
        <ele>18</ele>
        <time>2025-05-19T15:24:59Z</time>
      </trkpt>
      <trkpt lat="49.08184" lon="1.51576">
        <ele>17</ele>
        <time>2025-05-19T15:25:04Z</time>
      </trkpt>
      <trkpt lat="49.08183" lon="1.51579">
        <ele>17</ele>
        <time>2025-05-19T15:25:05Z</time>
      </trkpt>
      <trkpt lat="49.08184" lon="1.51587">
        <ele>17</ele>
        <time>2025-05-19T15:25:06Z</time>
      </trkpt>
      <trkpt lat="49.08178" lon="1.51595">
        <ele>17</ele>
        <time>2025-05-19T15:25:08Z</time>
      </trkpt>
      <trkpt lat="49.08176" lon="1.51596">
        <ele>17</ele>
        <time>2025-05-19T15:25:08Z</time>
      </trkpt>
      <trkpt lat="49.08165" lon="1.51595">
        <ele>16</ele>
        <time>2025-05-19T15:25:11Z</time>
      </trkpt>
      <trkpt lat="49.08114" lon="1.51633">
        <ele>17</ele>
        <time>2025-05-19T15:25:24Z</time>
      </trkpt>
      <trkpt lat="49.08089" lon="1.51657">
        <ele>18</ele>
        <time>2025-05-19T15:25:31Z</time>
      </trkpt>
      <trkpt lat="49.08083" lon="1.51643">
        <ele>17</ele>
        <time>2025-05-19T15:25:34Z</time>
      </trkpt>
      <trkpt lat="49.08076" lon="1.51648">
        <ele>17</ele>
        <time>2025-05-19T15:25:35Z</time>
      </trkpt>
      <trkpt lat="49.07943" lon="1.51774">
        <ele>16</ele>
        <time>2025-05-19T15:26:12Z</time>
      </trkpt>
      <trkpt lat="49.07912" lon="1.51809">
        <ele>17</ele>
        <time>2025-05-19T15:26:21Z</time>
      </trkpt>
      <trkpt lat="49.07868" lon="1.51843">
        <ele>17</ele>
        <time>2025-05-19T15:26:33Z</time>
      </trkpt>
      <trkpt lat="49.07839" lon="1.5187">
        <ele>17</ele>
        <time>2025-05-19T15:26:40Z</time>
      </trkpt>
      <trkpt lat="49.07802" lon="1.51908">
        <ele>16</ele>
        <time>2025-05-19T15:26:51Z</time>
      </trkpt>
      <trkpt lat="49.07766" lon="1.51954">
        <ele>16</ele>
        <time>2025-05-19T15:27:02Z</time>
      </trkpt>
      <trkpt lat="49.07722" lon="1.52029">
        <ele>17</ele>
        <time>2025-05-19T15:27:17Z</time>
      </trkpt>
      <trkpt lat="49.07648" lon="1.52174">
        <ele>17</ele>
        <time>2025-05-19T15:27:45Z</time>
      </trkpt>
      <trkpt lat="49.07614" lon="1.52168">
        <ele>16</ele>
        <time>2025-05-19T15:27:53Z</time>
      </trkpt>
      <trkpt lat="49.07596" lon="1.52168">
        <ele>15</ele>
        <time>2025-05-19T15:27:58Z</time>
      </trkpt>
      <trkpt lat="49.0756" lon="1.52172">
        <ele>15</ele>
        <time>2025-05-19T15:28:06Z</time>
      </trkpt>
      <trkpt lat="49.07495" lon="1.52205">
        <ele>16</ele>
        <time>2025-05-19T15:28:22Z</time>
      </trkpt>
      <trkpt lat="49.07441" lon="1.52238">
        <ele>15</ele>
        <time>2025-05-19T15:28:36Z</time>
      </trkpt>
      <trkpt lat="49.07434" lon="1.52244">
        <ele>15</ele>
        <time>2025-05-19T15:28:37Z</time>
      </trkpt>
      <trkpt lat="49.07418" lon="1.5226">
        <ele>14</ele>
        <time>2025-05-19T15:28:42Z</time>
      </trkpt>
      <trkpt lat="49.0737" lon="1.52327">
        <ele>15</ele>
        <time>2025-05-19T15:28:57Z</time>
      </trkpt>
      <trkpt lat="49.07363" lon="1.52349">
        <ele>15</ele>
        <time>2025-05-19T15:29:01Z</time>
      </trkpt>
      <trkpt lat="49.07352" lon="1.52455">
        <ele>14</ele>
        <time>2025-05-19T15:29:17Z</time>
      </trkpt>
      <trkpt lat="49.0733" lon="1.52632">
        <ele>17</ele>
        <time>2025-05-19T15:29:45Z</time>
      </trkpt>
      <trkpt lat="49.07325" lon="1.52732">
        <ele>18</ele>
        <time>2025-05-19T15:30:00Z</time>
      </trkpt>
      <trkpt lat="49.07295" lon="1.52733">
        <ele>16</ele>
        <time>2025-05-19T15:30:07Z</time>
      </trkpt>
      <trkpt lat="49.07267" lon="1.52738">
        <ele>15</ele>
        <time>2025-05-19T15:30:14Z</time>
      </trkpt>
      <trkpt lat="49.07262" lon="1.52752">
        <ele>15</ele>
        <time>2025-05-19T15:30:16Z</time>
      </trkpt>
      <trkpt lat="49.07265" lon="1.52794">
        <ele>15</ele>
        <time>2025-05-19T15:30:23Z</time>
      </trkpt>
      <trkpt lat="49.07275" lon="1.52868">
        <ele>15</ele>
        <time>2025-05-19T15:30:34Z</time>
      </trkpt>
      <trkpt lat="49.07278" lon="1.52949">
        <ele>15</ele>
        <time>2025-05-19T15:30:47Z</time>
      </trkpt>
      <trkpt lat="49.07283" lon="1.52958">
        <ele>15</ele>
        <time>2025-05-19T15:30:48Z</time>
      </trkpt>
      <trkpt lat="49.07289" lon="1.52961">
        <ele>15</ele>
        <time>2025-05-19T15:30:50Z</time>
      </trkpt>
      <trkpt lat="49.07343" lon="1.53003">
        <ele>15</ele>
        <time>2025-05-19T15:31:04Z</time>
      </trkpt>
      <trkpt lat="49.07345" lon="1.5301">
        <ele>15</ele>
        <time>2025-05-19T15:31:05Z</time>
      </trkpt>
      <trkpt lat="49.07355" lon="1.5302">
        <ele>16</ele>
        <time>2025-05-19T15:31:08Z</time>
      </trkpt>
      <trkpt lat="49.07372" lon="1.53019">
        <ele>16</ele>
        <time>2025-05-19T15:31:12Z</time>
      </trkpt>
      <trkpt lat="49.07393" lon="1.53007">
        <ele>16</ele>
        <time>2025-05-19T15:31:17Z</time>
      </trkpt>
      <trkpt lat="49.07402" lon="1.53028">
        <ele>17</ele>
        <time>2025-05-19T15:31:21Z</time>
      </trkpt>
      <trkpt lat="49.07408" lon="1.5305">
        <ele>17</ele>
        <time>2025-05-19T15:31:25Z</time>
      </trkpt>
      <trkpt lat="49.0742" lon="1.53074">
        <ele>18</ele>
        <time>2025-05-19T15:31:29Z</time>
      </trkpt>
      <trkpt lat="49.07442" lon="1.53073">
        <ele>18</ele>
        <time>2025-05-19T15:31:34Z</time>
      </trkpt>
      <trkpt lat="49.07451" lon="1.53034">
        <ele>18</ele>
        <time>2025-05-19T15:31:41Z</time>
      </trkpt>
      <trkpt lat="49.07462" lon="1.53153">
        <ele>18</ele>
        <time>2025-05-19T15:31:59Z</time>
      </trkpt>
      <trkpt lat="49.07467" lon="1.5321">
        <ele>18</ele>
        <time>2025-05-19T15:32:08Z</time>
      </trkpt>
      <trkpt lat="49.07467" lon="1.53272">
        <ele>18</ele>
        <time>2025-05-19T15:32:17Z</time>
      </trkpt>
      <trkpt lat="49.07465" lon="1.53362">
        <ele>19</ele>
        <time>2025-05-19T15:32:31Z</time>
      </trkpt>
      <trkpt lat="49.07459" lon="1.53499">
        <ele>20</ele>
        <time>2025-05-19T15:32:52Z</time>
      </trkpt>
      <trkpt lat="49.07451" lon="1.53599">
        <ele>22</ele>
        <time>2025-05-19T15:33:08Z</time>
      </trkpt>
      <trkpt lat="49.07436" lon="1.53707">
        <ele>22</ele>
        <time>2025-05-19T15:33:25Z</time>
      </trkpt>
      <trkpt lat="49.07417" lon="1.53822">
        <ele>20</ele>
        <time>2025-05-19T15:33:43Z</time>
      </trkpt>
      <trkpt lat="49.07406" lon="1.53914">
        <ele>20</ele>
        <time>2025-05-19T15:33:57Z</time>
      </trkpt>
      <trkpt lat="49.07403" lon="1.53984">
        <ele>21</ele>
        <time>2025-05-19T15:34:08Z</time>
      </trkpt>
      <trkpt lat="49.07402" lon="1.54143">
        <ele>22</ele>
        <time>2025-05-19T15:34:32Z</time>
      </trkpt>
      <trkpt lat="49.07335" lon="1.54135">
        <ele>20</ele>
        <time>2025-05-19T15:34:48Z</time>
      </trkpt>
      <trkpt lat="49.07265" lon="1.54183">
        <ele>17</ele>
        <time>2025-05-19T15:35:06Z</time>
      </trkpt>
      <trkpt lat="49.07158" lon="1.53877">
        <ele>16</ele>
        <time>2025-05-19T15:35:59Z</time>
      </trkpt>
      <trkpt lat="49.06952" lon="1.53774">
        <ele>13</ele>
        <time>2025-05-19T15:36:49Z</time>
      </trkpt>
      <trkpt lat="49.06861" lon="1.53186">
        <ele>14</ele>
        <time>2025-05-19T15:38:22Z</time>
      </trkpt>
      <trkpt lat="49.06526" lon="1.5336">
        <ele>16</ele>
        <time>2025-05-19T15:39:44Z</time>
      </trkpt>
      <trkpt lat="49.06424" lon="1.53417">
        <ele>16</ele>
        <time>2025-05-19T15:40:10Z</time>
      </trkpt>
      <trkpt lat="49.06369" lon="1.53454">
        <ele>17</ele>
        <time>2025-05-19T15:40:24Z</time>
      </trkpt>
      <trkpt lat="49.06315" lon="1.53492">
        <ele>18</ele>
        <time>2025-05-19T15:40:38Z</time>
      </trkpt>
      <trkpt lat="49.06189" lon="1.53462">
        <ele>17</ele>
        <time>2025-05-19T15:41:08Z</time>
      </trkpt>
      <trkpt lat="49.06139" lon="1.53478">
        <ele>17</ele>
        <time>2025-05-19T15:41:19Z</time>
      </trkpt>
      <trkpt lat="49.06084" lon="1.5355">
        <ele>15</ele>
        <time>2025-05-19T15:41:36Z</time>
      </trkpt>
      <trkpt lat="49.06039" lon="1.5353">
        <ele>17</ele>
        <time>2025-05-19T15:41:47Z</time>
      </trkpt>
      <trkpt lat="49.06004" lon="1.53493">
        <ele>18</ele>
        <time>2025-05-19T15:41:57Z</time>
      </trkpt>
      <trkpt lat="49.06009" lon="1.53318">
        <ele>15</ele>
        <time>2025-05-19T15:42:24Z</time>
      </trkpt>
      <trkpt lat="49.05973" lon="1.53343">
        <ele>16</ele>
        <time>2025-05-19T15:42:33Z</time>
      </trkpt>
      <trkpt lat="49.05958" lon="1.5335">
        <ele>17</ele>
        <time>2025-05-19T15:42:37Z</time>
      </trkpt>
      <trkpt lat="49.05939" lon="1.53353">
        <ele>17</ele>
        <time>2025-05-19T15:42:41Z</time>
      </trkpt>
      <trkpt lat="49.05892" lon="1.53356">
        <ele>18</ele>
        <time>2025-05-19T15:42:52Z</time>
      </trkpt>
      <trkpt lat="49.05889" lon="1.53333">
        <ele>17</ele>
        <time>2025-05-19T15:42:56Z</time>
      </trkpt>
      <trkpt lat="49.05831" lon="1.53367">
        <ele>18</ele>
        <time>2025-05-19T15:43:11Z</time>
      </trkpt>
      <trkpt lat="49.05735" lon="1.53403">
        <ele>18</ele>
        <time>2025-05-19T15:43:34Z</time>
      </trkpt>
      <trkpt lat="49.05718" lon="1.53404">
        <ele>18</ele>
        <time>2025-05-19T15:43:38Z</time>
      </trkpt>
      <trkpt lat="49.05684" lon="1.53416">
        <ele>17</ele>
        <time>2025-05-19T15:43:46Z</time>
      </trkpt>
      <trkpt lat="49.05624" lon="1.53377">
        <ele>16</ele>
        <time>2025-05-19T15:44:01Z</time>
      </trkpt>
      <trkpt lat="49.05042" lon="1.53635">
        <ele>15</ele>
        <time>2025-05-19T15:46:22Z</time>
      </trkpt>
      <trkpt lat="49.04509" lon="1.54039">
        <ele>16</ele>
        <time>2025-05-19T15:48:41Z</time>
      </trkpt>
      <trkpt lat="49.04236" lon="1.54335">
        <ele>16</ele>
        <time>2025-05-19T15:50:00Z</time>
      </trkpt>
      <trkpt lat="49.04339" lon="1.54503">
        <ele>22</ele>
        <time>2025-05-19T15:50:35Z</time>
      </trkpt>
      <trkpt lat="49.04209" lon="1.547">
        <ele>23</ele>
        <time>2025-05-19T15:51:18Z</time>
      </trkpt>
      <trkpt lat="49.04158" lon="1.54778">
        <ele>22</ele>
        <time>2025-05-19T15:51:35Z</time>
      </trkpt>
      <trkpt lat="49.04104" lon="1.54722">
        <ele>18</ele>
        <time>2025-05-19T15:51:50Z</time>
      </trkpt>
      <trkpt lat="49.04064" lon="1.54808">
        <ele>18</ele>
        <time>2025-05-19T15:52:06Z</time>
      </trkpt>
      <trkpt lat="49.04043" lon="1.54858">
        <ele>18</ele>
        <time>2025-05-19T15:52:15Z</time>
      </trkpt>
      <trkpt lat="49.03959" lon="1.55118">
        <ele>19</ele>
        <time>2025-05-19T15:52:59Z</time>
      </trkpt>
      <trkpt lat="49.03921" lon="1.55248">
        <ele>20</ele>
        <time>2025-05-19T15:53:21Z</time>
      </trkpt>
      <trkpt lat="49.03914" lon="1.55246">
        <ele>20</ele>
        <time>2025-05-19T15:53:23Z</time>
      </trkpt>
      <trkpt lat="49.03898" lon="1.55299">
        <ele>20</ele>
        <time>2025-05-19T15:53:32Z</time>
      </trkpt>
      <trkpt lat="49.03887" lon="1.55322">
        <ele>19</ele>
        <time>2025-05-19T15:53:36Z</time>
      </trkpt>
      <trkpt lat="49.03878" lon="1.55397">
        <ele>19</ele>
        <time>2025-05-19T15:53:48Z</time>
      </trkpt>
      <trkpt lat="49.03869" lon="1.55509">
        <ele>19</ele>
        <time>2025-05-19T15:54:05Z</time>
      </trkpt>
      <trkpt lat="49.0386" lon="1.55561">
        <ele>18</ele>
        <time>2025-05-19T15:54:13Z</time>
      </trkpt>
      <trkpt lat="49.03852" lon="1.55624">
        <ele>18</ele>
        <time>2025-05-19T15:54:23Z</time>
      </trkpt>
      <trkpt lat="49.03849" lon="1.55704">
        <ele>19</ele>
        <time>2025-05-19T15:54:35Z</time>
      </trkpt>
      <trkpt lat="49.03849" lon="1.55877">
        <ele>20</ele>
        <time>2025-05-19T15:55:02Z</time>
      </trkpt>
      <trkpt lat="49.03851" lon="1.55969">
        <ele>20</ele>
        <time>2025-05-19T15:55:16Z</time>
      </trkpt>
      <trkpt lat="49.03858" lon="1.56046">
        <ele>21</ele>
        <time>2025-05-19T15:55:28Z</time>
      </trkpt>
      <trkpt lat="49.03874" lon="1.56163">
        <ele>21</ele>
        <time>2025-05-19T15:55:46Z</time>
      </trkpt>
      <trkpt lat="49.03837" lon="1.56178">
        <ele>18</ele>
        <time>2025-05-19T15:55:55Z</time>
      </trkpt>
      <trkpt lat="49.03843" lon="1.56206">
        <ele>19</ele>
        <time>2025-05-19T15:56:00Z</time>
      </trkpt>
      <trkpt lat="49.03879" lon="1.56314">
        <ele>19</ele>
        <time>2025-05-19T15:56:18Z</time>
      </trkpt>
      <trkpt lat="49.03884" lon="1.56344">
        <ele>19</ele>
        <time>2025-05-19T15:56:23Z</time>
      </trkpt>
      <trkpt lat="49.03887" lon="1.56386">
        <ele>19</ele>
        <time>2025-05-19T15:56:29Z</time>
      </trkpt>
      <trkpt lat="49.0388" lon="1.56499">
        <ele>18</ele>
        <time>2025-05-19T15:56:47Z</time>
      </trkpt>
      <trkpt lat="49.03884" lon="1.56525">
        <ele>17</ele>
        <time>2025-05-19T15:56:51Z</time>
      </trkpt>
      <trkpt lat="49.03893" lon="1.56557">
        <ele>17</ele>
        <time>2025-05-19T15:56:56Z</time>
      </trkpt>
      <trkpt lat="49.03938" lon="1.56676">
        <ele>17</ele>
        <time>2025-05-19T15:57:17Z</time>
      </trkpt>
      <trkpt lat="49.03956" lon="1.5671">
        <ele>17</ele>
        <time>2025-05-19T15:57:24Z</time>
      </trkpt>
      <trkpt lat="49.04008" lon="1.56851">
        <ele>17</ele>
        <time>2025-05-19T15:57:49Z</time>
      </trkpt>
      <trkpt lat="49.04024" lon="1.56879">
        <ele>18</ele>
        <time>2025-05-19T15:57:54Z</time>
      </trkpt>
      <trkpt lat="49.0405" lon="1.56946">
        <ele>18</ele>
        <time>2025-05-19T15:58:06Z</time>
      </trkpt>
      <trkpt lat="49.04054" lon="1.56962">
        <ele>18</ele>
        <time>2025-05-19T15:58:09Z</time>
      </trkpt>
      <trkpt lat="49.04055" lon="1.56975">
        <ele>18</ele>
        <time>2025-05-19T15:58:11Z</time>
      </trkpt>
      <trkpt lat="49.04065" lon="1.56986">
        <ele>19</ele>
        <time>2025-05-19T15:58:14Z</time>
      </trkpt>
      <trkpt lat="49.04112" lon="1.57102">
        <ele>20</ele>
        <time>2025-05-19T15:58:35Z</time>
      </trkpt>
      <trkpt lat="49.04158" lon="1.57199">
        <ele>21</ele>
        <time>2025-05-19T15:58:53Z</time>
      </trkpt>
      <trkpt lat="49.04188" lon="1.57293">
        <ele>22</ele>
        <time>2025-05-19T15:59:09Z</time>
      </trkpt>
      <trkpt lat="49.04208" lon="1.57381">
        <ele>22</ele>
        <time>2025-05-19T15:59:23Z</time>
      </trkpt>
      <trkpt lat="49.04248" lon="1.57486">
        <ele>18</ele>
        <time>2025-05-19T15:59:42Z</time>
      </trkpt>
      <trkpt lat="49.04289" lon="1.57565">
        <ele>20</ele>
        <time>2025-05-19T15:59:57Z</time>
      </trkpt>
      <trkpt lat="49.04312" lon="1.5762">
        <ele>20</ele>
        <time>2025-05-19T16:00:07Z</time>
      </trkpt>
      <trkpt lat="49.04342" lon="1.57683">
        <ele>21</ele>
        <time>2025-05-19T16:00:19Z</time>
      </trkpt>
      <trkpt lat="49.04369" lon="1.57747">
        <ele>22</ele>
        <time>2025-05-19T16:00:31Z</time>
      </trkpt>
      <trkpt lat="49.0441" lon="1.5783">
        <ele>19</ele>
        <time>2025-05-19T16:00:47Z</time>
      </trkpt>
      <trkpt lat="49.04468" lon="1.57902">
        <ele>21</ele>
        <time>2025-05-19T16:01:04Z</time>
      </trkpt>
      <trkpt lat="49.04491" lon="1.57936">
        <ele>21</ele>
        <time>2025-05-19T16:01:12Z</time>
      </trkpt>
      <trkpt lat="49.04507" lon="1.57966">
        <ele>21</ele>
        <time>2025-05-19T16:01:18Z</time>
      </trkpt>
      <trkpt lat="49.04538" lon="1.58034">
        <ele>22</ele>
        <time>2025-05-19T16:01:30Z</time>
      </trkpt>
      <trkpt lat="49.04555" lon="1.58083">
        <ele>20</ele>
        <time>2025-05-19T16:01:39Z</time>
      </trkpt>
      <trkpt lat="49.04581" lon="1.58143">
        <ele>19</ele>
        <time>2025-05-19T16:01:50Z</time>
      </trkpt>
      <trkpt lat="49.04607" lon="1.5819">
        <ele>20</ele>
        <time>2025-05-19T16:01:59Z</time>
      </trkpt>
      <trkpt lat="49.04622" lon="1.58211">
        <ele>21</ele>
        <time>2025-05-19T16:02:04Z</time>
      </trkpt>
      <trkpt lat="49.04691" lon="1.58351">
        <ele>21</ele>
        <time>2025-05-19T16:02:31Z</time>
      </trkpt>
      <trkpt lat="49.04737" lon="1.58479">
        <ele>16</ele>
        <time>2025-05-19T16:02:53Z</time>
      </trkpt>
      <trkpt lat="49.05189" lon="1.59321">
        <ele>14</ele>
        <time>2025-05-19T16:05:40Z</time>
      </trkpt>
      <trkpt lat="49.05574" lon="1.59714">
        <ele>15</ele>
        <time>2025-05-19T16:07:28Z</time>
      </trkpt>
      <trkpt lat="49.05563" lon="1.59801">
        <ele>15</ele>
        <time>2025-05-19T16:07:41Z</time>
      </trkpt>
      <trkpt lat="49.05988" lon="1.60127">
        <ele>15</ele>
        <time>2025-05-19T16:09:33Z</time>
      </trkpt>
      <trkpt lat="49.06082" lon="1.60137">
        <ele>17</ele>
        <time>2025-05-19T16:09:55Z</time>
      </trkpt>
      <trkpt lat="49.06269" lon="1.60316">
        <ele>17</ele>
        <time>2025-05-19T16:10:46Z</time>
      </trkpt>
      <trkpt lat="49.06309" lon="1.6025">
        <ele>21</ele>
        <time>2025-05-19T16:11:00Z</time>
      </trkpt>
      <trkpt lat="49.06824" lon="1.6077">
        <ele>18</ele>
        <time>2025-05-19T16:13:24Z</time>
      </trkpt>
      <trkpt lat="49.06991" lon="1.60985">
        <ele>17</ele>
        <time>2025-05-19T16:14:15Z</time>
      </trkpt>
      <trkpt lat="49.07199" lon="1.61133">
        <ele>19</ele>
        <time>2025-05-19T16:15:09Z</time>
      </trkpt>
      <trkpt lat="49.07266" lon="1.61076">
        <ele>28</ele>
        <time>2025-05-19T16:15:27Z</time>
      </trkpt>
      <trkpt lat="49.07543" lon="1.61436">
        <ele>29</ele>
        <time>2025-05-19T16:16:52Z</time>
      </trkpt>
      <trkpt lat="49.0767" lon="1.61642">
        <ele>32</ele>
        <time>2025-05-19T16:17:35Z</time>
      </trkpt>
      <trkpt lat="49.07694" lon="1.61685">
        <ele>34</ele>
        <time>2025-05-19T16:17:43Z</time>
      </trkpt>
      <trkpt lat="49.07721" lon="1.6174">
        <ele>34</ele>
        <time>2025-05-19T16:17:54Z</time>
      </trkpt>
      <trkpt lat="49.07778" lon="1.61872">
        <ele>30</ele>
        <time>2025-05-19T16:18:18Z</time>
      </trkpt>
      <trkpt lat="49.0785" lon="1.6206">
        <ele>31</ele>
        <time>2025-05-19T16:18:51Z</time>
      </trkpt>
      <trkpt lat="49.07862" lon="1.62088">
        <ele>31</ele>
        <time>2025-05-19T16:18:57Z</time>
      </trkpt>
      <trkpt lat="49.07874" lon="1.62114">
        <ele>31</ele>
        <time>2025-05-19T16:19:01Z</time>
      </trkpt>
      <trkpt lat="49.07899" lon="1.62158">
        <ele>30</ele>
        <time>2025-05-19T16:19:10Z</time>
      </trkpt>
      <trkpt lat="49.07925" lon="1.62211">
        <ele>32</ele>
        <time>2025-05-19T16:19:20Z</time>
      </trkpt>
      <trkpt lat="49.07969" lon="1.62344">
        <ele>38</ele>
        <time>2025-05-19T16:19:43Z</time>
      </trkpt>
      <trkpt lat="49.07972" lon="1.62349">
        <ele>38</ele>
        <time>2025-05-19T16:19:44Z</time>
      </trkpt>
      <trkpt lat="49.07976" lon="1.6235">
        <ele>39</ele>
        <time>2025-05-19T16:19:45Z</time>
      </trkpt>
      <trkpt lat="49.07976" lon="1.6236">
        <ele>38</ele>
        <time>2025-05-19T16:19:47Z</time>
      </trkpt>
      <trkpt lat="49.0798" lon="1.62387">
        <ele>35</ele>
        <time>2025-05-19T16:19:51Z</time>
      </trkpt>
      <trkpt lat="49.07986" lon="1.6241">
        <ele>33</ele>
        <time>2025-05-19T16:19:55Z</time>
      </trkpt>
      <trkpt lat="49.07989" lon="1.62438">
        <ele>31</ele>
        <time>2025-05-19T16:19:59Z</time>
      </trkpt>
      <trkpt lat="49.08025" lon="1.62654">
        <ele>27</ele>
        <time>2025-05-19T16:20:33Z</time>
      </trkpt>
      <trkpt lat="49.08017" lon="1.62688">
        <ele>25</ele>
        <time>2025-05-19T16:20:39Z</time>
      </trkpt>
      <trkpt lat="49.08013" lon="1.62691">
        <ele>24</ele>
        <time>2025-05-19T16:20:40Z</time>
      </trkpt>
      <trkpt lat="49.08011" lon="1.62697">
        <ele>24</ele>
        <time>2025-05-19T16:20:41Z</time>
      </trkpt>
      <trkpt lat="49.08011" lon="1.62709">
        <ele>24</ele>
        <time>2025-05-19T16:20:43Z</time>
      </trkpt>
      <trkpt lat="49.08013" lon="1.62715">
        <ele>24</ele>
        <time>2025-05-19T16:20:44Z</time>
      </trkpt>
      <trkpt lat="49.08017" lon="1.62718">
        <ele>24</ele>
        <time>2025-05-19T16:20:45Z</time>
      </trkpt>
      <trkpt lat="49.08023" lon="1.62719">
        <ele>25</ele>
        <time>2025-05-19T16:20:46Z</time>
      </trkpt>
      <trkpt lat="49.0803" lon="1.62726">
        <ele>26</ele>
        <time>2025-05-19T16:20:48Z</time>
      </trkpt>
      <trkpt lat="49.08039" lon="1.62743">
        <ele>27</ele>
        <time>2025-05-19T16:20:51Z</time>
      </trkpt>
      <trkpt lat="49.08052" lon="1.62817">
        <ele>24</ele>
        <time>2025-05-19T16:21:03Z</time>
      </trkpt>
      <trkpt lat="49.08087" lon="1.62906">
        <ele>23</ele>
        <time>2025-05-19T16:21:19Z</time>
      </trkpt>
      <trkpt lat="49.08115" lon="1.6296">
        <ele>25</ele>
        <time>2025-05-19T16:21:30Z</time>
      </trkpt>
      <trkpt lat="49.08149" lon="1.63053">
        <ele>25</ele>
        <time>2025-05-19T16:21:46Z</time>
      </trkpt>
      <trkpt lat="49.08152" lon="1.63056">
        <ele>26</ele>
        <time>2025-05-19T16:21:47Z</time>
      </trkpt>
      <trkpt lat="49.08186" lon="1.63068">
        <ele>31</ele>
        <time>2025-05-19T16:21:55Z</time>
      </trkpt>
      <trkpt lat="49.08193" lon="1.63072">
        <ele>33</ele>
        <time>2025-05-19T16:21:57Z</time>
      </trkpt>
      <trkpt lat="49.08198" lon="1.63077">
        <ele>34</ele>
        <time>2025-05-19T16:21:58Z</time>
      </trkpt>
      <trkpt lat="49.08215" lon="1.63103">
        <ele>36</ele>
        <time>2025-05-19T16:22:04Z</time>
      </trkpt>
      <trkpt lat="49.08219" lon="1.63115">
        <ele>37</ele>
        <time>2025-05-19T16:22:06Z</time>
      </trkpt>
      <trkpt lat="49.08234" lon="1.63214">
        <ele>32</ele>
        <time>2025-05-19T16:22:21Z</time>
      </trkpt>
      <trkpt lat="49.0827" lon="1.63339">
        <ele>30</ele>
        <time>2025-05-19T16:22:42Z</time>
      </trkpt>
      <trkpt lat="49.08281" lon="1.63383">
        <ele>31</ele>
        <time>2025-05-19T16:22:49Z</time>
      </trkpt>
      <trkpt lat="49.08305" lon="1.63528">
        <ele>36</ele>
        <time>2025-05-19T16:23:12Z</time>
      </trkpt>
      <trkpt lat="49.08323" lon="1.63655">
        <ele>31</ele>
        <time>2025-05-19T16:23:32Z</time>
      </trkpt>
      <trkpt lat="49.08328" lon="1.63679">
        <ele>31</ele>
        <time>2025-05-19T16:23:36Z</time>
      </trkpt>
      <trkpt lat="49.08422" lon="1.64351">
        <ele>32</ele>
        <time>2025-05-19T16:25:21Z</time>
      </trkpt>
      <trkpt lat="49.08425" lon="1.64414">
        <ele>30</ele>
        <time>2025-05-19T16:25:31Z</time>
      </trkpt>
      <trkpt lat="49.08414" lon="1.65239">
        <ele>29</ele>
        <time>2025-05-19T16:27:37Z</time>
      </trkpt>
      <trkpt lat="49.08411" lon="1.65292">
        <ele>28</ele>
        <time>2025-05-19T16:27:45Z</time>
      </trkpt>
      <trkpt lat="49.08408" lon="1.65316">
        <ele>28</ele>
        <time>2025-05-19T16:27:49Z</time>
      </trkpt>
      <trkpt lat="49.08388" lon="1.6543">
        <ele>32</ele>
        <time>2025-05-19T16:28:07Z</time>
      </trkpt>
      <trkpt lat="49.08375" lon="1.65566">
        <ele>33</ele>
        <time>2025-05-19T16:28:28Z</time>
      </trkpt>
      <trkpt lat="49.08362" lon="1.65642">
        <ele>31</ele>
        <time>2025-05-19T16:28:40Z</time>
      </trkpt>
      <trkpt lat="49.08334" lon="1.65753">
        <ele>30</ele>
        <time>2025-05-19T16:28:58Z</time>
      </trkpt>
      <trkpt lat="49.08327" lon="1.65802">
        <ele>31</ele>
        <time>2025-05-19T16:29:06Z</time>
      </trkpt>
      <trkpt lat="49.08286" lon="1.65799">
        <ele>25</ele>
        <time>2025-05-19T16:29:15Z</time>
      </trkpt>
      <trkpt lat="49.08246" lon="1.65793">
        <ele>18</ele>
        <time>2025-05-19T16:29:25Z</time>
      </trkpt>
      <trkpt lat="49.0824" lon="1.65822">
        <ele>19</ele>
        <time>2025-05-19T16:29:29Z</time>
      </trkpt>
      <trkpt lat="49.08229" lon="1.65898">
        <ele>19</ele>
        <time>2025-05-19T16:29:41Z</time>
      </trkpt>
      <trkpt lat="49.08181" lon="1.6617">
        <ele>18</ele>
        <time>2025-05-19T16:30:24Z</time>
      </trkpt>
      <trkpt lat="49.08168" lon="1.66215">
        <ele>17</ele>
        <time>2025-05-19T16:30:32Z</time>
      </trkpt>
      <trkpt lat="49.08128" lon="1.66338">
        <ele>20</ele>
        <time>2025-05-19T16:30:53Z</time>
      </trkpt>
      <trkpt lat="49.08099" lon="1.66413">
        <ele>18</ele>
        <time>2025-05-19T16:31:06Z</time>
      </trkpt>
      <trkpt lat="49.08088" lon="1.6645">
        <ele>18</ele>
        <time>2025-05-19T16:31:12Z</time>
      </trkpt>
      <trkpt lat="49.08075" lon="1.66515">
        <ele>19</ele>
        <time>2025-05-19T16:31:23Z</time>
      </trkpt>
      <trkpt lat="49.08073" lon="1.66539">
        <ele>19</ele>
        <time>2025-05-19T16:31:26Z</time>
      </trkpt>
      <trkpt lat="49.07999" lon="1.66813">
        <ele>21</ele>
        <time>2025-05-19T16:32:12Z</time>
      </trkpt>
      <trkpt lat="49.0795" lon="1.66933">
        <ele>20</ele>
        <time>2025-05-19T16:32:33Z</time>
      </trkpt>
      <trkpt lat="49.07943" lon="1.66955">
        <ele>20</ele>
        <time>2025-05-19T16:32:37Z</time>
      </trkpt>
      <trkpt lat="49.07928" lon="1.67046">
        <ele>20</ele>
        <time>2025-05-19T16:32:52Z</time>
      </trkpt>
      <trkpt lat="49.07918" lon="1.67096">
        <ele>19</ele>
        <time>2025-05-19T16:33:00Z</time>
      </trkpt>
      <trkpt lat="49.07901" lon="1.67149">
        <ele>20</ele>
        <time>2025-05-19T16:33:09Z</time>
      </trkpt>
      <trkpt lat="49.07883" lon="1.67213">
        <ele>22</ele>
        <time>2025-05-19T16:33:19Z</time>
      </trkpt>
      <trkpt lat="49.07879" lon="1.67238">
        <ele>22</ele>
        <time>2025-05-19T16:33:23Z</time>
      </trkpt>
      <trkpt lat="49.07834" lon="1.67333">
        <ele>21</ele>
        <time>2025-05-19T16:33:41Z</time>
      </trkpt>
      <trkpt lat="49.07493" lon="1.6816">
        <ele>20</ele>
        <time>2025-05-19T16:36:11Z</time>
      </trkpt>
      <trkpt lat="49.0755" lon="1.68242">
        <ele>30</ele>
        <time>2025-05-19T16:36:29Z</time>
      </trkpt>
      <trkpt lat="49.07393" lon="1.68548">
        <ele>30</ele>
        <time>2025-05-19T16:37:28Z</time>
      </trkpt>
      <trkpt lat="49.07227" lon="1.68868">
        <ele>31</ele>
        <time>2025-05-19T16:38:31Z</time>
      </trkpt>
      <trkpt lat="49.06863" lon="1.69497">
        <ele>33</ele>
        <time>2025-05-19T16:40:39Z</time>
      </trkpt>
      <trkpt lat="49.06765" lon="1.69655">
        <ele>36</ele>
        <time>2025-05-19T16:41:12Z</time>
      </trkpt>
      <trkpt lat="49.06701" lon="1.69745">
        <ele>35</ele>
        <time>2025-05-19T16:41:33Z</time>
      </trkpt>
      <trkpt lat="49.06649" lon="1.69814">
        <ele>33</ele>
        <time>2025-05-19T16:41:49Z</time>
      </trkpt>
      <trkpt lat="49.06523" lon="1.69972">
        <ele>29</ele>
        <time>2025-05-19T16:42:27Z</time>
      </trkpt>
      <trkpt lat="49.06518" lon="1.6998">
        <ele>29</ele>
        <time>2025-05-19T16:42:29Z</time>
      </trkpt>
      <trkpt lat="49.06508" lon="1.70005">
        <ele>29</ele>
        <time>2025-05-19T16:42:33Z</time>
      </trkpt>
      <trkpt lat="49.06512" lon="1.70012">
        <ele>30</ele>
        <time>2025-05-19T16:42:35Z</time>
      </trkpt>
      <trkpt lat="49.06518" lon="1.70048">
        <ele>31</ele>
        <time>2025-05-19T16:42:40Z</time>
      </trkpt>
      <trkpt lat="49.0652" lon="1.70053">
        <ele>32</ele>
        <time>2025-05-19T16:42:41Z</time>
      </trkpt>
      <trkpt lat="49.06524" lon="1.70055">
        <ele>32</ele>
        <time>2025-05-19T16:42:42Z</time>
      </trkpt>
      <trkpt lat="49.06559" lon="1.70052">
        <ele>37</ele>
        <time>2025-05-19T16:42:50Z</time>
      </trkpt>
      <trkpt lat="49.06613" lon="1.70041">
        <ele>44</ele>
        <time>2025-05-19T16:43:03Z</time>
      </trkpt>
      <trkpt lat="49.06634" lon="1.70043">
        <ele>48</ele>
        <time>2025-05-19T16:43:08Z</time>
      </trkpt>
      <trkpt lat="49.06636" lon="1.70045">
        <ele>48</ele>
        <time>2025-05-19T16:43:08Z</time>
      </trkpt>
      <trkpt lat="49.06648" lon="1.70182">
        <ele>47</ele>
        <time>2025-05-19T16:43:30Z</time>
      </trkpt>
      <trkpt lat="49.06651" lon="1.70238">
        <ele>44</ele>
        <time>2025-05-19T16:43:38Z</time>
      </trkpt>
      <trkpt lat="49.06653" lon="1.70247">
        <ele>44</ele>
        <time>2025-05-19T16:43:40Z</time>
      </trkpt>
      <trkpt lat="49.06659" lon="1.70254">
        <ele>44</ele>
        <time>2025-05-19T16:43:41Z</time>
      </trkpt>
      <trkpt lat="49.06669" lon="1.70256">
        <ele>45</ele>
        <time>2025-05-19T16:43:44Z</time>
      </trkpt>
      <trkpt lat="49.06696" lon="1.70256">
        <ele>48</ele>
        <time>2025-05-19T16:43:50Z</time>
      </trkpt>
      <trkpt lat="49.06714" lon="1.70263">
        <ele>49</ele>
        <time>2025-05-19T16:43:54Z</time>
      </trkpt>
      <trkpt lat="49.06746" lon="1.70287">
        <ele>51</ele>
        <time>2025-05-19T16:44:03Z</time>
      </trkpt>
      <trkpt lat="49.06771" lon="1.70317">
        <ele>51</ele>
        <time>2025-05-19T16:44:10Z</time>
      </trkpt>
      <trkpt lat="49.06808" lon="1.70354">
        <ele>53</ele>
        <time>2025-05-19T16:44:21Z</time>
      </trkpt>
      <trkpt lat="49.06833" lon="1.70376">
        <ele>53</ele>
        <time>2025-05-19T16:44:27Z</time>
      </trkpt>
      <trkpt lat="49.06926" lon="1.70442">
        <ele>58</ele>
        <time>2025-05-19T16:44:51Z</time>
      </trkpt>
      <trkpt lat="49.06956" lon="1.70455">
        <ele>58</ele>
        <time>2025-05-19T16:44:59Z</time>
      </trkpt>
      <trkpt lat="49.06977" lon="1.70455">
        <ele>58</ele>
        <time>2025-05-19T16:45:03Z</time>
      </trkpt>
      <trkpt lat="49.07009" lon="1.70448">
        <ele>60</ele>
        <time>2025-05-19T16:45:11Z</time>
      </trkpt>
      <trkpt lat="49.07048" lon="1.70442">
        <ele>63</ele>
        <time>2025-05-19T16:45:20Z</time>
      </trkpt>
      <trkpt lat="49.0705" lon="1.70438">
        <ele>63</ele>
        <time>2025-05-19T16:45:21Z</time>
      </trkpt>
      <trkpt lat="49.07051" lon="1.70394">
        <ele>66</ele>
        <time>2025-05-19T16:45:28Z</time>
      </trkpt>
      <trkpt lat="49.07056" lon="1.7039">
        <ele>66</ele>
        <time>2025-05-19T16:45:29Z</time>
      </trkpt>
      <trkpt lat="49.07075" lon="1.70386">
        <ele>67</ele>
        <time>2025-05-19T16:45:33Z</time>
      </trkpt>
      <trkpt lat="49.07098" lon="1.70382">
        <ele>68</ele>
        <time>2025-05-19T16:45:39Z</time>
      </trkpt>
      <trkpt lat="49.07123" lon="1.70381">
        <ele>69</ele>
        <time>2025-05-19T16:45:45Z</time>
      </trkpt>
      <trkpt lat="49.07136" lon="1.70381">
        <ele>70</ele>
        <time>2025-05-19T16:45:48Z</time>
      </trkpt>
      <trkpt lat="49.07169" lon="1.70387">
        <ele>71</ele>
        <time>2025-05-19T16:45:55Z</time>
      </trkpt>
      <trkpt lat="49.07195" lon="1.70387">
        <ele>74</ele>
        <time>2025-05-19T16:46:02Z</time>
      </trkpt>
      <trkpt lat="49.07234" lon="1.7039">
        <ele>78</ele>
        <time>2025-05-19T16:46:11Z</time>
      </trkpt>
      <trkpt lat="49.07274" lon="1.70397">
        <ele>79</ele>
        <time>2025-05-19T16:46:20Z</time>
      </trkpt>
      <trkpt lat="49.07339" lon="1.70415">
        <ele>80</ele>
        <time>2025-05-19T16:46:35Z</time>
      </trkpt>
      <trkpt lat="49.07353" lon="1.70425">
        <ele>81</ele>
        <time>2025-05-19T16:46:39Z</time>
      </trkpt>
      <trkpt lat="49.07367" lon="1.70439">
        <ele>82</ele>
        <time>2025-05-19T16:46:43Z</time>
      </trkpt>
      <trkpt lat="49.07365" lon="1.70443">
        <ele>82</ele>
        <time>2025-05-19T16:46:44Z</time>
      </trkpt>
      <trkpt lat="49.07368" lon="1.70446">
        <ele>82</ele>
        <time>2025-05-19T16:46:45Z</time>
      </trkpt>
      <trkpt lat="49.07371" lon="1.70446">
        <ele>82</ele>
        <time>2025-05-19T16:46:45Z</time>
      </trkpt>
      <trkpt lat="49.07447" lon="1.70432">
        <ele>86</ele>
        <time>2025-05-19T16:47:03Z</time>
      </trkpt>
      <trkpt lat="49.07461" lon="1.70427">
        <ele>88</ele>
        <time>2025-05-19T16:47:07Z</time>
      </trkpt>
      <trkpt lat="49.07481" lon="1.70415">
        <ele>89</ele>
        <time>2025-05-19T16:47:12Z</time>
      </trkpt>
      <trkpt lat="49.07504" lon="1.70394">
        <ele>92</ele>
        <time>2025-05-19T16:47:18Z</time>
      </trkpt>
      <trkpt lat="49.07532" lon="1.70372">
        <ele>95</ele>
        <time>2025-05-19T16:47:25Z</time>
      </trkpt>
      <trkpt lat="49.07574" lon="1.70352">
        <ele>99</ele>
        <time>2025-05-19T16:47:35Z</time>
      </trkpt>
      <trkpt lat="49.07594" lon="1.70349">
        <ele>100</ele>
        <time>2025-05-19T16:47:40Z</time>
      </trkpt>
      <trkpt lat="49.07609" lon="1.70354">
        <ele>100</ele>
        <time>2025-05-19T16:47:44Z</time>
      </trkpt>
      <trkpt lat="49.07636" lon="1.70383">
        <ele>103</ele>
        <time>2025-05-19T16:47:51Z</time>
      </trkpt>
      <trkpt lat="49.0765" lon="1.70395">
        <ele>105</ele>
        <time>2025-05-19T16:47:55Z</time>
      </trkpt>
      <trkpt lat="49.07677" lon="1.70412">
        <ele>107</ele>
        <time>2025-05-19T16:48:02Z</time>
      </trkpt>
      <trkpt lat="49.07765" lon="1.70459">
        <ele>112</ele>
        <time>2025-05-19T16:48:24Z</time>
      </trkpt>
      <trkpt lat="49.07811" lon="1.70477">
        <ele>112</ele>
        <time>2025-05-19T16:48:35Z</time>
      </trkpt>
      <trkpt lat="49.07854" lon="1.70491">
        <ele>112</ele>
        <time>2025-05-19T16:48:45Z</time>
      </trkpt>
      <trkpt lat="49.07897" lon="1.70499">
        <ele>111</ele>
        <time>2025-05-19T16:48:55Z</time>
      </trkpt>
      <trkpt lat="49.0798" lon="1.70505">
        <ele>113</ele>
        <time>2025-05-19T16:49:15Z</time>
      </trkpt>
      <trkpt lat="49.07971" lon="1.70638">
        <ele>127</ele>
        <time>2025-05-19T16:49:35Z</time>
      </trkpt>
      <trkpt lat="49.08083" lon="1.70666">
        <ele>132</ele>
        <time>2025-05-19T16:50:02Z</time>
      </trkpt>
      <trkpt lat="49.0824" lon="1.70975">
        <ele>142</ele>
        <time>2025-05-19T16:51:01Z</time>
      </trkpt>
      <trkpt lat="49.08359" lon="1.71119">
        <ele>146</ele>
        <time>2025-05-19T16:51:37Z</time>
      </trkpt>
      <trkpt lat="49.08421" lon="1.71235">
        <ele>147</ele>
        <time>2025-05-19T16:52:00Z</time>
      </trkpt>
      <trkpt lat="49.08442" lon="1.71322">
        <ele>149</ele>
        <time>2025-05-19T16:52:14Z</time>
      </trkpt>
      <trkpt lat="49.0863" lon="1.71393">
        <ele>158</ele>
        <time>2025-05-19T16:52:59Z</time>
      </trkpt>
      <trkpt lat="49.08651" lon="1.71582">
        <ele>160</ele>
        <time>2025-05-19T16:53:29Z</time>
      </trkpt>
      <trkpt lat="49.0864" lon="1.71772">
        <ele>160</ele>
        <time>2025-05-19T16:53:58Z</time>
      </trkpt>
      <trkpt lat="49.08645" lon="1.71925">
        <ele>154</ele>
        <time>2025-05-19T16:54:21Z</time>
      </trkpt>
      <trkpt lat="49.08637" lon="1.72034">
        <ele>150</ele>
        <time>2025-05-19T16:54:38Z</time>
      </trkpt>
      <trkpt lat="49.08631" lon="1.72078">
        <ele>148</ele>
        <time>2025-05-19T16:54:45Z</time>
      </trkpt>
      <trkpt lat="49.08631" lon="1.72101">
        <ele>147</ele>
        <time>2025-05-19T16:54:48Z</time>
      </trkpt>
      <trkpt lat="49.08695" lon="1.7212">
        <ele>148</ele>
        <time>2025-05-19T16:55:04Z</time>
      </trkpt>
      <trkpt lat="49.08743" lon="1.7213">
        <ele>148</ele>
        <time>2025-05-19T16:55:15Z</time>
      </trkpt>
      <trkpt lat="49.08782" lon="1.72141">
        <ele>150</ele>
        <time>2025-05-19T16:55:24Z</time>
      </trkpt>
      <trkpt lat="49.08787" lon="1.7214">
        <ele>151</ele>
        <time>2025-05-19T16:55:25Z</time>
      </trkpt>
      <trkpt lat="49.08789" lon="1.72138">
        <ele>151</ele>
        <time>2025-05-19T16:55:26Z</time>
      </trkpt>
      <trkpt lat="49.08803" lon="1.72155">
        <ele>151</ele>
        <time>2025-05-19T16:55:30Z</time>
      </trkpt>
      <trkpt lat="49.08869" lon="1.72218">
        <ele>154</ele>
        <time>2025-05-19T16:55:48Z</time>
      </trkpt>
      <trkpt lat="49.08922" lon="1.72292">
        <ele>157</ele>
        <time>2025-05-19T16:56:05Z</time>
      </trkpt>
      <trkpt lat="49.08938" lon="1.72307">
        <ele>159</ele>
        <time>2025-05-19T16:56:09Z</time>
      </trkpt>
      <trkpt lat="49.08987" lon="1.72341">
        <ele>161</ele>
        <time>2025-05-19T16:56:22Z</time>
      </trkpt>
      <trkpt lat="49.09011" lon="1.72366">
        <ele>163</ele>
        <time>2025-05-19T16:56:29Z</time>
      </trkpt>
      <trkpt lat="49.09038" lon="1.72402">
        <ele>166</ele>
        <time>2025-05-19T16:56:37Z</time>
      </trkpt>
      <trkpt lat="49.09058" lon="1.72435">
        <ele>168</ele>
        <time>2025-05-19T16:56:44Z</time>
      </trkpt>
      <trkpt lat="49.09118" lon="1.72525">
        <ele>169</ele>
        <time>2025-05-19T16:57:04Z</time>
      </trkpt>
      <trkpt lat="49.09182" lon="1.72503">
        <ele>173</ele>
        <time>2025-05-19T16:57:19Z</time>
      </trkpt>
      <trkpt lat="49.09193" lon="1.72502">
        <ele>174</ele>
        <time>2025-05-19T16:57:21Z</time>
      </trkpt>
      <trkpt lat="49.09197" lon="1.72486">
        <ele>175</ele>
        <time>2025-05-19T16:57:24Z</time>
      </trkpt>
    </trkseg>
  </trk>
</gpx>